sensor_id;sensor_type;location;lat;lon;timestamp;P1;durP1;ratioP1;P2;durP2;ratioP2
16352;SDS011;8286;51.274;9.542;2022-10-16T00:02:22;3.28;;;1.85;;
16352;SDS011;8286;51.274;9.542;2022-10-16T00:04:49;1.88;;;1.70;;
16352;SDS011;8286;51.274;9.542;2022-10-16T00:07:16;1.63;;;1.47;;
16352;SDS011;8286;51.274;9.542;2022-10-16T00:09:43;3.00;;;2.17;;
16352;SDS011;8286;51.274;9.542;2022-10-16T00:12:09;2.58;;;2.00;;
16352;SDS011;8286;51.274;9.542;2022-10-16T00:14:36;1.65;;;1.55;;
16352;SDS011;8286;51.274;9.542;2022-10-16T00:17:04;3.57;;;1.80;;
16352;SDS011;8286;51.274;9.542;2022-10-16T00:19:30;3.00;;;1.70;;
16352;SDS011;8286;51.274;9.542;2022-10-16T00:21:57;1.70;;;1.60;;
16352;SDS011;8286;51.274;9.542;2022-10-16T00:24:23;1.50;;;1.50;;
16352;SDS011;8286;51.274;9.542;2022-10-16T00:26:50;1.83;;;1.57;;
16352;SDS011;8286;51.274;9.542;2022-10-16T00:29:17;1.97;;;1.60;;
16352;SDS011;8286;51.274;9.542;2022-10-16T00:31:43;2.08;;;1.83;;
16352;SDS011;8286;51.274;9.542;2022-10-16T00:34:11;2.17;;;2.03;;
16352;SDS011;8286;51.274;9.542;2022-10-16T00:36:38;2.20;;;2.10;;
16352;SDS011;8286;51.274;9.542;2022-10-16T00:39:04;2.37;;;2.27;;
16352;SDS011;8286;51.274;9.542;2022-10-16T00:41:32;2.60;;;2.40;;
16352;SDS011;8286;51.274;9.542;2022-10-16T00:44:00;2.47;;;2.27;;
16352;SDS011;8286;51.274;9.542;2022-10-16T00:46:28;2.77;;;2.57;;
16352;SDS011;8286;51.274;9.542;2022-10-16T00:49:04;2.77;;;2.27;;
16352;SDS011;8286;51.274;9.542;2022-10-16T00:51:34;2.63;;;2.42;;
16352;SDS011;8286;51.274;9.542;2022-10-16T00:54:02;2.90;;;2.70;;
16352;SDS011;8286;51.274;9.542;2022-10-16T00:56:29;2.80;;;2.60;;
16352;SDS011;8286;51.274;9.542;2022-10-16T00:58:56;3.93;;;3.00;;
16352;SDS011;8286;51.274;9.542;2022-10-16T01:01:23;4.67;;;2.53;;
16352;SDS011;8286;51.274;9.542;2022-10-16T01:03:50;3.30;;;2.73;;
16352;SDS011;8286;51.274;9.542;2022-10-16T01:06:21;3.43;;;2.80;;
16352;SDS011;8286;51.274;9.542;2022-10-16T01:08:55;3.10;;;2.90;;
16352;SDS011;8286;51.274;9.542;2022-10-16T01:11:30;4.17;;;2.70;;
16352;SDS011;8286;51.274;9.542;2022-10-16T01:14:02;2.80;;;2.60;;
16352;SDS011;8286;51.274;9.542;2022-10-16T01:16:34;3.00;;;2.80;;
16352;SDS011;8286;51.274;9.542;2022-10-16T01:19:02;2.83;;;2.63;;
16352;SDS011;8286;51.274;9.542;2022-10-16T01:21:32;2.50;;;2.30;;
16352;SDS011;8286;51.274;9.542;2022-10-16T01:24:11;2.90;;;2.70;;
16352;SDS011;8286;51.274;9.542;2022-10-16T01:26:50;3.47;;;3.20;;
16352;SDS011;8286;51.274;9.542;2022-10-16T01:29:29;4.57;;;3.60;;
16352;SDS011;8286;51.274;9.542;2022-10-16T01:32:01;4.00;;;3.60;;
16352;SDS011;8286;51.274;9.542;2022-10-16T01:34:35;4.10;;;3.80;;
16352;SDS011;8286;51.274;9.542;2022-10-16T01:37:04;5.40;;;4.20;;
16352;SDS011;8286;51.274;9.542;2022-10-16T01:39:34;4.43;;;3.70;;
16352;SDS011;8286;51.274;9.542;2022-10-16T01:42:06;4.77;;;3.37;;
16352;SDS011;8286;51.274;9.542;2022-10-16T01:44:35;4.28;;;3.97;;
16352;SDS011;8286;51.274;9.542;2022-10-16T01:47:03;4.13;;;3.73;;
16352;SDS011;8286;51.274;9.542;2022-10-16T01:49:31;7.10;;;3.90;;
16352;SDS011;8286;51.274;9.542;2022-10-16T01:51:59;4.07;;;3.77;;
16352;SDS011;8286;51.274;9.542;2022-10-16T01:54:29;3.47;;;3.17;;
16352;SDS011;8286;51.274;9.542;2022-10-16T01:56:59;3.83;;;3.53;;
16352;SDS011;8286;51.274;9.542;2022-10-16T01:59:29;4.40;;;4.00;;
16352;SDS011;8286;51.274;9.542;2022-10-16T02:01:58;4.00;;;3.67;;
16352;SDS011;8286;51.274;9.542;2022-10-16T02:04:28;4.90;;;4.40;;
16352;SDS011;8286;51.274;9.542;2022-10-16T02:06:55;4.50;;;4.10;;
16352;SDS011;8286;51.274;9.542;2022-10-16T02:09:22;5.40;;;3.60;;
16352;SDS011;8286;51.274;9.542;2022-10-16T02:11:49;4.10;;;3.70;;
16352;SDS011;8286;51.274;9.542;2022-10-16T02:14:17;4.27;;;3.87;;
16352;SDS011;8286;51.274;9.542;2022-10-16T02:16:46;4.83;;;4.10;;
16352;SDS011;8286;51.274;9.542;2022-10-16T02:19:13;6.80;;;3.60;;
16352;SDS011;8286;51.274;9.542;2022-10-16T02:21:43;3.93;;;3.50;;
16352;SDS011;8286;51.274;9.542;2022-10-16T02:24:12;5.37;;;4.30;;
16352;SDS011;8286;51.274;9.542;2022-10-16T02:26:44;3.50;;;3.30;;
16352;SDS011;8286;51.274;9.542;2022-10-16T02:29:14;5.57;;;3.87;;
16352;SDS011;8286;51.274;9.542;2022-10-16T02:31:43;3.73;;;3.37;;
16352;SDS011;8286;51.274;9.542;2022-10-16T02:34:13;5.23;;;3.90;;
16352;SDS011;8286;51.274;9.542;2022-10-16T02:36:41;4.30;;;3.90;;
16352;SDS011;8286;51.274;9.542;2022-10-16T02:39:08;3.60;;;3.30;;
16352;SDS011;8286;51.274;9.542;2022-10-16T02:41:35;4.40;;;4.07;;
16352;SDS011;8286;51.274;9.542;2022-10-16T02:44:02;4.07;;;3.67;;
16352;SDS011;8286;51.274;9.542;2022-10-16T02:46:28;4.00;;;3.70;;
16352;SDS011;8286;51.274;9.542;2022-10-16T02:48:56;3.70;;;3.50;;
16352;SDS011;8286;51.274;9.542;2022-10-16T02:51:23;3.93;;;3.40;;
16352;SDS011;8286;51.274;9.542;2022-10-16T02:53:49;4.23;;;3.60;;
16352;SDS011;8286;51.274;9.542;2022-10-16T02:56:16;4.80;;;3.23;;
16352;SDS011;8286;51.274;9.542;2022-10-16T02:58:43;3.40;;;3.10;;
16352;SDS011;8286;51.274;9.542;2022-10-16T03:01:09;3.70;;;3.33;;
16352;SDS011;8286;51.274;9.542;2022-10-16T03:03:37;3.07;;;2.77;;
16352;SDS011;8286;51.274;9.542;2022-10-16T03:06:05;3.37;;;2.70;;
16352;SDS011;8286;51.274;9.542;2022-10-16T03:08:32;2.77;;;2.57;;
16352;SDS011;8286;51.274;9.542;2022-10-16T03:10:58;3.87;;;3.00;;
16352;SDS011;8286;51.274;9.542;2022-10-16T03:13:25;2.90;;;2.70;;
16352;SDS011;8286;51.274;9.542;2022-10-16T03:15:52;2.87;;;2.67;;
16352;SDS011;8286;51.274;9.542;2022-10-16T03:18:18;5.80;;;2.90;;
16352;SDS011;8286;51.274;9.542;2022-10-16T03:20:45;3.53;;;3.23;;
16352;SDS011;8286;51.274;9.542;2022-10-16T03:23:13;3.03;;;2.83;;
16352;SDS011;8286;51.274;9.542;2022-10-16T03:25:39;4.63;;;2.70;;
16352;SDS011;8286;51.274;9.542;2022-10-16T03:28:06;3.00;;;2.67;;
16352;SDS011;8286;51.274;9.542;2022-10-16T03:30:32;7.33;;;2.90;;
16352;SDS011;8286;51.274;9.542;2022-10-16T03:32:59;3.10;;;2.90;;
16352;SDS011;8286;51.274;9.542;2022-10-16T03:35:26;3.50;;;2.70;;
16352;SDS011;8286;51.274;9.542;2022-10-16T03:37:52;3.50;;;3.03;;
16352;SDS011;8286;51.274;9.542;2022-10-16T03:40:20;3.97;;;2.43;;
16352;SDS011;8286;51.274;9.542;2022-10-16T03:42:47;2.57;;;2.47;;
16352;SDS011;8286;51.274;9.542;2022-10-16T03:45:14;4.17;;;2.90;;
16352;SDS011;8286;51.274;9.542;2022-10-16T03:47:40;2.33;;;2.17;;
16352;SDS011;8286;51.274;9.542;2022-10-16T03:50:07;2.57;;;2.47;;
16352;SDS011;8286;51.274;9.542;2022-10-16T03:52:34;2.50;;;2.40;;
16352;SDS011;8286;51.274;9.542;2022-10-16T03:55:00;2.97;;;2.77;;
16352;SDS011;8286;51.274;9.542;2022-10-16T03:57:28;3.93;;;2.87;;
16352;SDS011;8286;51.274;9.542;2022-10-16T03:59:55;4.83;;;3.10;;
16352;SDS011;8286;51.274;9.542;2022-10-16T04:02:21;3.57;;;3.27;;
16352;SDS011;8286;51.274;9.542;2022-10-16T04:04:48;2.87;;;2.67;;
16352;SDS011;8286;51.274;9.542;2022-10-16T04:07:15;3.27;;;3.00;;
16352;SDS011;8286;51.274;9.542;2022-10-16T04:09:41;3.60;;;3.30;;
16352;SDS011;8286;51.274;9.542;2022-10-16T04:12:08;3.20;;;3.00;;
16352;SDS011;8286;51.274;9.542;2022-10-16T04:14:36;3.43;;;2.90;;
16352;SDS011;8286;51.274;9.542;2022-10-16T04:17:02;4.30;;;3.50;;
16352;SDS011;8286;51.274;9.542;2022-10-16T04:19:29;3.73;;;3.30;;
16352;SDS011;8286;51.274;9.542;2022-10-16T04:21:56;4.43;;;3.20;;
16352;SDS011;8286;51.274;9.542;2022-10-16T04:24:22;3.07;;;2.87;;
16352;SDS011;8286;51.274;9.542;2022-10-16T04:26:49;5.77;;;2.70;;
16352;SDS011;8286;51.274;9.542;2022-10-16T04:29:16;3.03;;;2.83;;
16352;SDS011;8286;51.274;9.542;2022-10-16T04:31:44;3.00;;;2.70;;
16352;SDS011;8286;51.274;9.542;2022-10-16T04:34:10;4.87;;;2.60;;
16352;SDS011;8286;51.274;9.542;2022-10-16T04:36:37;4.13;;;2.70;;
16352;SDS011;8286;51.274;9.542;2022-10-16T04:39:03;2.50;;;2.30;;
16352;SDS011;8286;51.274;9.542;2022-10-16T04:41:30;3.70;;;2.70;;
16352;SDS011;8286;51.274;9.542;2022-10-16T04:43:56;2.50;;;2.30;;
16352;SDS011;8286;51.274;9.542;2022-10-16T04:46:23;4.70;;;2.10;;
16352;SDS011;8286;51.274;9.542;2022-10-16T04:48:51;3.60;;;2.57;;
16352;SDS011;8286;51.274;9.542;2022-10-16T04:51:18;5.00;;;2.20;;
16352;SDS011;8286;51.274;9.542;2022-10-16T04:53:45;3.23;;;2.20;;
16352;SDS011;8286;51.274;9.542;2022-10-16T04:56:12;2.43;;;2.30;;
16352;SDS011;8286;51.274;9.542;2022-10-16T04:58:40;2.07;;;1.97;;
16352;SDS011;8286;51.274;9.542;2022-10-16T05:01:06;2.07;;;1.97;;
16352;SDS011;8286;51.274;9.542;2022-10-16T05:03:33;3.13;;;2.50;;
16352;SDS011;8286;51.274;9.542;2022-10-16T05:06:01;2.00;;;1.90;;
16352;SDS011;8286;51.274;9.542;2022-10-16T05:08:29;1.90;;;1.80;;
16352;SDS011;8286;51.274;9.542;2022-10-16T05:10:55;1.53;;;1.43;;
16352;SDS011;8286;51.274;9.542;2022-10-16T05:13:22;5.20;;;1.97;;
16352;SDS011;8286;51.274;9.542;2022-10-16T05:15:49;2.40;;;1.70;;
16352;SDS011;8286;51.274;9.542;2022-10-16T05:18:15;3.47;;;1.77;;
16352;SDS011;8286;51.274;9.542;2022-10-16T05:20:42;1.90;;;1.63;;
16352;SDS011;8286;51.274;9.542;2022-10-16T05:23:10;1.83;;;1.70;;
16352;SDS011;8286;51.274;9.542;2022-10-16T05:25:37;1.90;;;1.80;;
16352;SDS011;8286;51.274;9.542;2022-10-16T05:28:03;1.70;;;1.60;;
16352;SDS011;8286;51.274;9.542;2022-10-16T05:30:30;1.90;;;1.80;;
16352;SDS011;8286;51.274;9.542;2022-10-16T05:32:57;2.57;;;2.10;;
16352;SDS011;8286;51.274;9.542;2022-10-16T05:35:23;2.10;;;1.90;;
16352;SDS011;8286;51.274;9.542;2022-10-16T05:37:50;2.63;;;2.13;;
16352;SDS011;8286;51.274;9.542;2022-10-16T05:40:18;2.43;;;2.20;;
16352;SDS011;8286;51.274;9.542;2022-10-16T05:42:44;2.80;;;2.60;;
16352;SDS011;8286;51.274;9.542;2022-10-16T05:45:11;2.50;;;2.30;;
16352;SDS011;8286;51.274;9.542;2022-10-16T05:47:38;8.13;;;3.03;;
16352;SDS011;8286;51.274;9.542;2022-10-16T05:50:05;2.50;;;2.30;;
16352;SDS011;8286;51.274;9.542;2022-10-16T05:52:32;2.60;;;2.40;;
16352;SDS011;8286;51.274;9.542;2022-10-16T05:54:59;3.13;;;2.40;;
16352;SDS011;8286;51.274;9.542;2022-10-16T05:57:27;3.57;;;2.43;;
16352;SDS011;8286;51.274;9.542;2022-10-16T05:59:54;2.83;;;2.63;;
16352;SDS011;8286;51.274;9.542;2022-10-16T06:02:20;2.97;;;2.60;;
16352;SDS011;8286;51.274;9.542;2022-10-16T06:04:47;2.80;;;2.60;;
16352;SDS011;8286;51.274;9.542;2022-10-16T06:07:13;3.17;;;2.93;;
16352;SDS011;8286;51.274;9.542;2022-10-16T06:09:40;4.03;;;3.63;;
16352;SDS011;8286;51.274;9.542;2022-10-16T06:12:06;3.50;;;3.20;;
16352;SDS011;8286;51.274;9.542;2022-10-16T06:14:35;3.20;;;2.90;;
16352;SDS011;8286;51.274;9.542;2022-10-16T06:17:01;10.47;;;4.53;;
16352;SDS011;8286;51.274;9.542;2022-10-16T06:19:28;4.30;;;3.50;;
16352;SDS011;8286;51.274;9.542;2022-10-16T06:21:54;5.30;;;3.97;;
16352;SDS011;8286;51.274;9.542;2022-10-16T06:24:23;4.37;;;3.97;;
16352;SDS011;8286;51.274;9.542;2022-10-16T06:26:49;4.60;;;3.73;;
16352;SDS011;8286;51.274;9.542;2022-10-16T06:29:16;4.90;;;3.73;;
16352;SDS011;8286;51.274;9.542;2022-10-16T06:31:44;4.47;;;3.50;;
16352;SDS011;8286;51.274;9.542;2022-10-16T06:34:10;4.20;;;3.13;;
16352;SDS011;8286;51.274;9.542;2022-10-16T06:36:37;4.27;;;2.87;;
16352;SDS011;8286;51.274;9.542;2022-10-16T06:39:04;4.77;;;3.30;;
16352;SDS011;8286;51.274;9.542;2022-10-16T06:41:32;3.17;;;2.87;;
16352;SDS011;8286;51.274;9.542;2022-10-16T06:43:59;3.10;;;2.80;;
16352;SDS011;8286;51.274;9.542;2022-10-16T06:46:26;3.83;;;2.87;;
16352;SDS011;8286;51.274;9.542;2022-10-16T06:48:54;4.27;;;2.33;;
16352;SDS011;8286;51.274;9.542;2022-10-16T06:51:21;2.87;;;2.57;;
16352;SDS011;8286;51.274;9.542;2022-10-16T06:53:49;3.20;;;2.90;;
16352;SDS011;8286;51.274;9.542;2022-10-16T06:56:17;4.37;;;2.60;;
16352;SDS011;8286;51.274;9.542;2022-10-16T06:58:45;2.30;;;2.20;;
16352;SDS011;8286;51.274;9.542;2022-10-16T07:01:12;4.77;;;2.10;;
16352;SDS011;8286;51.274;9.542;2022-10-16T07:03:41;2.20;;;2.00;;
16352;SDS011;8286;51.274;9.542;2022-10-16T07:06:11;2.63;;;1.87;;
16352;SDS011;8286;51.274;9.542;2022-10-16T07:08:40;2.70;;;1.83;;
16352;SDS011;8286;51.274;9.542;2022-10-16T07:11:08;2.93;;;2.13;;
16352;SDS011;8286;51.274;9.542;2022-10-16T07:13:36;2.23;;;2.10;;
16352;SDS011;8286;51.274;9.542;2022-10-16T07:16:04;3.90;;;2.77;;
16352;SDS011;8286;51.274;9.542;2022-10-16T07:18:31;2.93;;;2.13;;
16352;SDS011;8286;51.274;9.542;2022-10-16T07:21:02;3.73;;;2.00;;
16352;SDS011;8286;51.274;9.542;2022-10-16T07:23:31;3.00;;;2.20;;
16352;SDS011;8286;51.274;9.542;2022-10-16T07:25:57;2.50;;;2.30;;
16352;SDS011;8286;51.274;9.542;2022-10-16T07:28:24;2.97;;;2.47;;
16352;SDS011;8286;51.274;9.542;2022-10-16T07:30:51;2.37;;;2.17;;
16352;SDS011;8286;51.274;9.542;2022-10-16T07:33:17;2.80;;;2.60;;
16352;SDS011;8286;51.274;9.542;2022-10-16T07:35:48;2.60;;;2.40;;
16352;SDS011;8286;51.274;9.542;2022-10-16T07:38:15;2.90;;;2.70;;
16352;SDS011;8286;51.274;9.542;2022-10-16T07:40:43;2.00;;;1.90;;
16352;SDS011;8286;51.274;9.542;2022-10-16T07:43:09;2.63;;;2.43;;
16352;SDS011;8286;51.274;9.542;2022-10-16T07:45:36;2.23;;;2.13;;
16352;SDS011;8286;51.274;9.542;2022-10-16T07:48:03;2.20;;;2.00;;
16352;SDS011;8286;51.274;9.542;2022-10-16T07:50:30;4.50;;;2.00;;
16352;SDS011;8286;51.274;9.542;2022-10-16T07:52:58;2.30;;;1.30;;
16352;SDS011;8286;51.274;9.542;2022-10-16T07:55:24;2.07;;;1.50;;
16352;SDS011;8286;51.274;9.542;2022-10-16T07:57:52;1.93;;;1.50;;
16352;SDS011;8286;51.274;9.542;2022-10-16T08:00:19;1.50;;;1.40;;
16352;SDS011;8286;51.274;9.542;2022-10-16T08:02:45;1.63;;;1.53;;
16352;SDS011;8286;51.274;9.542;2022-10-16T08:05:12;1.63;;;1.27;;
16352;SDS011;8286;51.274;9.542;2022-10-16T08:07:39;1.80;;;1.70;;
16352;SDS011;8286;51.274;9.542;2022-10-16T08:10:05;1.60;;;1.50;;
16352;SDS011;8286;51.274;9.542;2022-10-16T08:12:32;1.60;;;1.50;;
16352;SDS011;8286;51.274;9.542;2022-10-16T08:15:00;1.50;;;1.50;;
16352;SDS011;8286;51.274;9.542;2022-10-16T08:17:27;1.47;;;1.37;;
16352;SDS011;8286;51.274;9.542;2022-10-16T08:19:53;3.37;;;1.20;;
16352;SDS011;8286;51.274;9.542;2022-10-16T08:22:20;2.50;;;1.37;;
16352;SDS011;8286;51.274;9.542;2022-10-16T08:24:47;4.87;;;1.60;;
16352;SDS011;8286;51.274;9.542;2022-10-16T08:27:13;1.10;;;1.10;;
16352;SDS011;8286;51.274;9.542;2022-10-16T08:29:40;1.20;;;1.20;;
16352;SDS011;8286;51.274;9.542;2022-10-16T08:32:08;1.53;;;1.50;;
16352;SDS011;8286;51.274;9.542;2022-10-16T08:34:34;1.40;;;1.40;;
16352;SDS011;8286;51.274;9.542;2022-10-16T08:37:01;1.20;;;1.20;;
16352;SDS011;8286;51.274;9.542;2022-10-16T08:39:28;1.60;;;1.50;;
16352;SDS011;8286;51.274;9.542;2022-10-16T08:42:06;1.30;;;1.20;;
16352;SDS011;8286;51.274;9.542;2022-10-16T08:44:50;1.53;;;1.43;;
16352;SDS011;8286;51.274;9.542;2022-10-16T08:47:38;1.37;;;1.27;;
16352;SDS011;8286;51.274;9.542;2022-10-16T08:50:11;1.60;;;1.40;;
16352;SDS011;8286;51.274;9.542;2022-10-16T08:52:39;2.93;;;1.50;;
16352;SDS011;8286;51.274;9.542;2022-10-16T08:55:08;1.33;;;1.30;;
16352;SDS011;8286;51.274;9.542;2022-10-16T08:57:54;1.50;;;1.40;;
16352;SDS011;8286;51.274;9.542;2022-10-16T09:00:20;1.50;;;1.40;;
16352;SDS011;8286;51.274;9.542;2022-10-16T09:02:50;2.13;;;1.70;;
16352;SDS011;8286;51.274;9.542;2022-10-16T09:05:24;1.83;;;1.63;;
16352;SDS011;8286;51.274;9.542;2022-10-16T09:08:03;2.63;;;1.77;;
16352;SDS011;8286;51.274;9.542;2022-10-16T09:10:38;2.07;;;1.97;;
16352;SDS011;8286;51.274;9.542;2022-10-16T09:13:13;1.80;;;1.70;;
16352;SDS011;8286;51.274;9.542;2022-10-16T09:15:46;3.70;;;1.63;;
16352;SDS011;8286;51.274;9.542;2022-10-16T09:18:18;2.55;;;2.35;;
16352;SDS011;8286;51.274;9.542;2022-10-16T09:20:49;1.63;;;1.58;;
16352;SDS011;8286;51.274;9.542;2022-10-16T09:23:18;1.45;;;1.45;;
16352;SDS011;8286;51.274;9.542;2022-10-16T09:25:48;1.27;;;1.27;;
16352;SDS011;8286;51.274;9.542;2022-10-16T09:28:16;1.40;;;1.30;;
16352;SDS011;8286;51.274;9.542;2022-10-16T09:30:43;1.70;;;1.55;;
16352;SDS011;8286;51.274;9.542;2022-10-16T09:33:11;1.45;;;1.27;;
16352;SDS011;8286;51.274;9.542;2022-10-16T09:35:40;1.23;;;1.23;;
16352;SDS011;8286;51.274;9.542;2022-10-16T09:38:08;5.38;;;1.30;;
16352;SDS011;8286;51.274;9.542;2022-10-16T09:40:36;1.42;;;1.33;;
16352;SDS011;8286;51.274;9.542;2022-10-16T09:43:06;3.28;;;1.08;;
16352;SDS011;8286;51.274;9.542;2022-10-16T09:45:42;2.15;;;1.10;;
16352;SDS011;8286;51.274;9.542;2022-10-16T09:48:10;1.83;;;0.95;;
16352;SDS011;8286;51.274;9.542;2022-10-16T09:50:37;1.27;;;1.05;;
16352;SDS011;8286;51.274;9.542;2022-10-16T09:53:07;1.38;;;1.02;;
16352;SDS011;8286;51.274;9.542;2022-10-16T09:55:47;1.15;;;0.98;;
16352;SDS011;8286;51.274;9.542;2022-10-16T09:58:14;1.02;;;0.82;;
16352;SDS011;8286;51.274;9.542;2022-10-16T10:00:40;2.53;;;1.00;;
16352;SDS011;8286;51.274;9.542;2022-10-16T10:03:09;1.40;;;0.90;;
16352;SDS011;8286;51.274;9.542;2022-10-16T10:05:37;1.45;;;0.90;;
16352;SDS011;8286;51.274;9.542;2022-10-16T10:08:06;1.75;;;0.98;;
16352;SDS011;8286;51.274;9.542;2022-10-16T10:10:41;1.13;;;0.85;;
16352;SDS011;8286;51.274;9.542;2022-10-16T10:13:16;1.55;;;1.02;;
16352;SDS011;8286;51.274;9.542;2022-10-16T10:15:44;0.80;;;0.80;;
16352;SDS011;8286;51.274;9.542;2022-10-16T10:18:15;1.10;;;0.85;;
16352;SDS011;8286;51.274;9.542;2022-10-16T10:20:44;0.77;;;0.77;;
16352;SDS011;8286;51.274;9.542;2022-10-16T10:23:20;1.23;;;1.10;;
16352;SDS011;8286;51.274;9.542;2022-10-16T10:25:49;0.88;;;0.88;;
16352;SDS011;8286;51.274;9.542;2022-10-16T10:28:21;0.80;;;0.80;;
16352;SDS011;8286;51.274;9.542;2022-10-16T10:30:59;0.82;;;0.80;;
16352;SDS011;8286;51.274;9.542;2022-10-16T10:33:31;1.17;;;1.08;;
16352;SDS011;8286;51.274;9.542;2022-10-16T10:36:07;1.05;;;1.05;;
16352;SDS011;8286;51.274;9.542;2022-10-16T10:38:42;1.63;;;1.20;;
16352;SDS011;8286;51.274;9.542;2022-10-16T10:44:13;0.55;;;0.55;;
16352;SDS011;8286;51.274;9.542;2022-10-16T10:46:45;0.43;;;0.43;;
16352;SDS011;8286;51.274;9.542;2022-10-16T10:49:22;0.77;;;0.77;;
16352;SDS011;8286;51.274;9.542;2022-10-16T10:51:58;0.90;;;0.60;;
16352;SDS011;8286;51.274;9.542;2022-10-16T10:54:34;0.60;;;0.60;;
16352;SDS011;8286;51.274;9.542;2022-10-16T10:57:07;0.63;;;0.50;;
16352;SDS011;8286;51.274;9.542;2022-10-16T10:59:49;0.45;;;0.45;;
16352;SDS011;8286;51.274;9.542;2022-10-16T11:02:24;0.60;;;0.60;;
16352;SDS011;8286;51.274;9.542;2022-10-16T11:07:59;0.60;;;0.60;;
16352;SDS011;8286;51.274;9.542;2022-10-16T11:10:28;0.98;;;0.50;;
16352;SDS011;8286;51.274;9.542;2022-10-16T11:12:58;0.82;;;0.68;;
16352;SDS011;8286;51.274;9.542;2022-10-16T11:15:30;2.35;;;0.90;;
16352;SDS011;8286;51.274;9.542;2022-10-16T11:18:00;0.75;;;0.70;;
16352;SDS011;8286;51.274;9.542;2022-10-16T11:20:31;2.35;;;0.73;;
16352;SDS011;8286;51.274;9.542;2022-10-16T11:23:00;1.58;;;0.80;;
16352;SDS011;8286;51.274;9.542;2022-10-16T11:25:30;0.75;;;0.60;;
16352;SDS011;8286;51.274;9.542;2022-10-16T11:27:58;2.05;;;0.63;;
16352;SDS011;8286;51.274;9.542;2022-10-16T11:30:29;0.57;;;0.57;;
16352;SDS011;8286;51.274;9.542;2022-10-16T11:33:04;1.50;;;0.60;;
16352;SDS011;8286;51.274;9.542;2022-10-16T11:35:38;1.00;;;0.70;;
16352;SDS011;8286;51.274;9.542;2022-10-16T11:38:10;0.95;;;0.50;;
16352;SDS011;8286;51.274;9.542;2022-10-16T11:40:42;0.60;;;0.60;;
16352;SDS011;8286;51.274;9.542;2022-10-16T11:43:10;0.60;;;0.60;;
16352;SDS011;8286;51.274;9.542;2022-10-16T11:45:41;0.63;;;0.60;;
16352;SDS011;8286;51.274;9.542;2022-10-16T11:48:12;0.77;;;0.68;;
16352;SDS011;8286;51.274;9.542;2022-10-16T11:50:45;0.70;;;0.70;;
16352;SDS011;8286;51.274;9.542;2022-10-16T11:53:18;2.15;;;0.70;;
16352;SDS011;8286;51.274;9.542;2022-10-16T11:55:51;0.98;;;0.98;;
16352;SDS011;8286;51.274;9.542;2022-10-16T11:58:21;0.90;;;0.60;;
16352;SDS011;8286;51.274;9.542;2022-10-16T12:00:51;2.15;;;0.80;;
16352;SDS011;8286;51.274;9.542;2022-10-16T12:03:22;1.00;;;0.43;;
16352;SDS011;8286;51.274;9.542;2022-10-16T12:05:59;0.80;;;0.80;;
16352;SDS011;8286;51.274;9.542;2022-10-16T12:08:33;0.70;;;0.70;;
16352;SDS011;8286;51.274;9.542;2022-10-16T12:11:07;0.65;;;0.50;;
16352;SDS011;8286;51.274;9.542;2022-10-16T12:13:35;0.80;;;0.60;;
16352;SDS011;8286;51.274;9.542;2022-10-16T12:16:04;0.50;;;0.50;;
16352;SDS011;8286;51.274;9.542;2022-10-16T12:18:32;1.17;;;0.40;;
16352;SDS011;8286;51.274;9.542;2022-10-16T12:20:59;0.60;;;0.60;;
16352;SDS011;8286;51.274;9.542;2022-10-16T12:23:30;0.60;;;0.60;;
16352;SDS011;8286;51.274;9.542;2022-10-16T12:25:57;1.65;;;0.95;;
16352;SDS011;8286;51.274;9.542;2022-10-16T12:28:27;0.65;;;0.65;;
16352;SDS011;8286;51.274;9.542;2022-10-16T12:30:55;0.50;;;0.50;;
16352;SDS011;8286;51.274;9.542;2022-10-16T12:33:23;0.60;;;0.60;;
16352;SDS011;8286;51.274;9.542;2022-10-16T12:35:52;1.45;;;0.50;;
16352;SDS011;8286;51.274;9.542;2022-10-16T12:38:20;0.93;;;0.73;;
16352;SDS011;8286;51.274;9.542;2022-10-16T12:40:54;0.60;;;0.60;;
16352;SDS011;8286;51.274;9.542;2022-10-16T12:43:25;1.00;;;0.60;;
16352;SDS011;8286;51.274;9.542;2022-10-16T12:46:01;0.60;;;0.60;;
16352;SDS011;8286;51.274;9.542;2022-10-16T12:48:29;0.60;;;0.60;;
16352;SDS011;8286;51.274;9.542;2022-10-16T12:50:56;1.48;;;0.60;;
16352;SDS011;8286;51.274;9.542;2022-10-16T12:53:24;0.65;;;0.65;;
16352;SDS011;8286;51.274;9.542;2022-10-16T12:55:56;0.52;;;0.52;;
16352;SDS011;8286;51.274;9.542;2022-10-16T12:58:33;0.60;;;0.60;;
16352;SDS011;8286;51.274;9.542;2022-10-16T13:01:10;0.73;;;0.70;;
16352;SDS011;8286;51.274;9.542;2022-10-16T13:06:33;1.42;;;0.68;;
16352;SDS011;8286;51.274;9.542;2022-10-16T13:09:08;2.25;;;0.55;;
16352;SDS011;8286;51.274;9.542;2022-10-16T13:11:46;2.22;;;0.70;;
16352;SDS011;8286;51.274;9.542;2022-10-16T13:14:31;1.23;;;0.40;;
16352;SDS011;8286;51.274;9.542;2022-10-16T13:17:20;1.08;;;0.50;;
16352;SDS011;8286;51.274;9.542;2022-10-16T13:19:53;0.55;;;0.55;;
16352;SDS011;8286;51.274;9.542;2022-10-16T13:22:28;1.95;;;0.50;;
16352;SDS011;8286;51.274;9.542;2022-10-16T13:25:02;0.40;;;0.40;;
16352;SDS011;8286;51.274;9.542;2022-10-16T13:27:40;0.70;;;0.68;;
16352;SDS011;8286;51.274;9.542;2022-10-16T13:30:13;0.77;;;0.55;;
16352;SDS011;8286;51.274;9.542;2022-10-16T13:32:44;1.33;;;0.73;;
16352;SDS011;8286;51.274;9.542;2022-10-16T13:37:42;2.38;;;0.70;;
16352;SDS011;8286;51.274;9.542;2022-10-16T13:40:12;0.45;;;0.45;;
16352;SDS011;8286;51.274;9.542;2022-10-16T13:42:45;0.60;;;0.60;;
16352;SDS011;8286;51.274;9.542;2022-10-16T13:45:20;0.80;;;0.50;;
16352;SDS011;8286;51.274;9.542;2022-10-16T13:47:48;1.55;;;0.50;;
16352;SDS011;8286;51.274;9.542;2022-10-16T13:50:16;0.70;;;0.50;;
16352;SDS011;8286;51.274;9.542;2022-10-16T13:52:44;0.80;;;0.50;;
16352;SDS011;8286;51.274;9.542;2022-10-16T13:55:11;0.80;;;0.80;;
16352;SDS011;8286;51.274;9.542;2022-10-16T13:57:38;0.60;;;0.60;;
16352;SDS011;8286;51.274;9.542;2022-10-16T14:00:17;0.47;;;0.47;;
16352;SDS011;8286;51.274;9.542;2022-10-16T14:02:49;0.50;;;0.50;;
16352;SDS011;8286;51.274;9.542;2022-10-16T14:05:17;0.73;;;0.60;;
16352;SDS011;8286;51.274;9.542;2022-10-16T14:07:47;0.73;;;0.45;;
16352;SDS011;8286;51.274;9.542;2022-10-16T14:10:20;0.50;;;0.50;;
16352;SDS011;8286;51.274;9.542;2022-10-16T14:12:54;1.48;;;0.55;;
16352;SDS011;8286;51.274;9.542;2022-10-16T14:15:23;0.55;;;0.55;;
16352;SDS011;8286;51.274;9.542;2022-10-16T14:17:50;0.50;;;0.50;;
16352;SDS011;8286;51.274;9.542;2022-10-16T14:20:17;2.00;;;0.60;;
16352;SDS011;8286;51.274;9.542;2022-10-16T14:22:44;0.57;;;0.57;;
16352;SDS011;8286;51.274;9.542;2022-10-16T14:25:23;0.40;;;0.40;;
16352;SDS011;8286;51.274;9.542;2022-10-16T14:27:59;0.65;;;0.65;;
16352;SDS011;8286;51.274;9.542;2022-10-16T14:30:32;0.47;;;0.47;;
16352;SDS011;8286;51.274;9.542;2022-10-16T14:33:00;0.63;;;0.63;;
16352;SDS011;8286;51.274;9.542;2022-10-16T14:35:29;0.73;;;0.73;;
16352;SDS011;8286;51.274;9.542;2022-10-16T14:37:57;0.90;;;0.90;;
16352;SDS011;8286;51.274;9.542;2022-10-16T14:40:24;1.42;;;1.33;;
16352;SDS011;8286;51.274;9.542;2022-10-16T14:42:52;2.95;;;1.10;;
16352;SDS011;8286;51.274;9.542;2022-10-16T14:45:20;1.08;;;0.57;;
16352;SDS011;8286;51.274;9.542;2022-10-16T14:47:49;0.50;;;0.50;;
16352;SDS011;8286;51.274;9.542;2022-10-16T14:50:17;0.63;;;0.63;;
16352;SDS011;8286;51.274;9.542;2022-10-16T14:52:43;1.52;;;0.60;;
16352;SDS011;8286;51.274;9.542;2022-10-16T14:55:10;0.60;;;0.60;;
16352;SDS011;8286;51.274;9.542;2022-10-16T14:57:37;1.20;;;0.63;;
16352;SDS011;8286;51.274;9.542;2022-10-16T15:00:08;2.03;;;0.80;;
16352;SDS011;8286;51.274;9.542;2022-10-16T15:02:38;1.45;;;0.77;;
16352;SDS011;8286;51.274;9.542;2022-10-16T15:05:10;0.90;;;0.90;;
16352;SDS011;8286;51.274;9.542;2022-10-16T15:07:38;1.08;;;1.08;;
16352;SDS011;8286;51.274;9.542;2022-10-16T15:10:05;1.55;;;0.75;;
16352;SDS011;8286;51.274;9.542;2022-10-16T15:12:32;1.83;;;0.70;;
16352;SDS011;8286;51.274;9.542;2022-10-16T15:14:58;0.75;;;0.70;;
16352;SDS011;8286;51.274;9.542;2022-10-16T15:17:25;1.38;;;1.27;;
16352;SDS011;8286;51.274;9.542;2022-10-16T15:19:51;0.60;;;0.60;;
16352;SDS011;8286;51.274;9.542;2022-10-16T15:22:19;2.28;;;0.70;;
16352;SDS011;8286;51.274;9.542;2022-10-16T15:24:48;0.75;;;0.70;;